Pagina principale
METAR-TAF:

METAR-TAF

Aeroporti :

São Vicente, Capo Verde

latitudine: 16-49-59N, longitudine: 25-03-25W, altezza: 20 m

Osservazione

Il bollettino è stato emesso 36 minuti fa, alle 07:00 UTC
Vento 29 kt da est/nord-est con raffiche fino a 39 kt
Temperature 23°C
Umidità 83%
Pressione 1014 hPa
Visibilità 10 km o più
Poco nuvoloso ad un'altezza di 1500 ft

METAR: GVSV 180700Z 06029G39KT 9999 FEW015 23/20 Q1014 NOSIG

Ora: 06:36 (07:36 UTC)

Previsione

Il bollettino è stato emesso 2 ore e 36 minuti fa, alle 05:00 UTC
Previsione valida dal 18 alle 06 UTC al 19 alle 12 UTC
Vento 28 kt da est/nord-est
Visibilità 10 km o più
Poco nuvoloso ad un'altezza di 1800 ft
Temporaneamente
dal 18 alle 10 UTC al 18 alle 20 UTC
Vento 30 kt da est/nord-est con raffiche fino a 40 kt

TAF: GVSV 180500Z 1806/1912 06028KT 9999 FEW018 TEMPO 1810/1820 06030G40KT

Osservazioni e previsioni meteorologiche di più di 4000 aeroporti (messaggi METAR e TAF).

Le stazioni disponibili sono rappresentate dai dischi gialli e rossi sulla carta.

Puntare il mouse per vedere il nome della stazione.

Clicca sopra per visualizzare le osservazioni e previsioni meteorologiche.

Per cambiare la mappa : fare clic sui pulsanti verdi con una croce nera per ingrandire, il pulsante verde con un trattino per diminuire, o sulla freccia verde per le mappe adiacenti.


METAR-TAF: